createdAt,value
2019-03-28T00:00:09.516Z,29.40
2019-03-28T00:02:40.633Z,30.92
2019-03-28T00:05:10.210Z,30.05
2019-03-28T00:07:39.803Z,30.55
2019-03-28T00:10:10.093Z,31.17
2019-03-28T00:12:40.338Z,31.68
2019-03-28T00:15:10.438Z,34.15
2019-03-28T00:17:40.010Z,33.45
2019-03-28T00:20:10.162Z,32.98
2019-03-28T00:22:42.184Z,33.78
2019-03-28T00:25:16.535Z,32.93
2019-03-28T00:27:46.323Z,35.13
2019-03-28T00:30:17.174Z,34.98
2019-03-28T00:32:46.828Z,34.40
2019-03-28T00:35:16.365Z,34.15
2019-03-28T00:37:45.974Z,34.90
2019-03-28T00:40:15.533Z,34.90
2019-03-28T00:42:45.113Z,33.98
2019-03-28T00:45:14.919Z,33.65
2019-03-28T00:47:44.482Z,34.20
2019-03-28T00:50:14.071Z,35.65
2019-03-28T00:52:43.626Z,34.20
2019-03-28T00:55:13.190Z,32.73
2019-03-28T00:57:42.763Z,34.95
2019-03-28T01:00:12.808Z,33.20
2019-03-28T01:02:42.394Z,32.83
2019-03-28T01:05:11.983Z,33.80
2019-03-28T01:07:41.528Z,34.38
2019-03-28T01:10:11.290Z,33.75
2019-03-28T01:12:40.854Z,34.03
2019-03-28T01:15:10.589Z,34.30
2019-03-28T01:17:40.144Z,33.65
2019-03-28T01:20:09.645Z,33.73
2019-03-28T01:22:39.306Z,33.60
2019-03-28T01:25:08.715Z,34.83
2019-03-28T01:27:38.163Z,35.83
2019-03-28T01:30:07.913Z,34.23
2019-03-28T01:32:37.258Z,35.40
2019-03-28T01:35:06.832Z,33.78
2019-03-28T01:37:36.294Z,34.73
2019-03-28T01:40:06.501Z,35.68
2019-03-28T01:42:36.212Z,33.45
2019-03-28T01:45:06.777Z,36.08
2019-03-28T01:47:37.000Z,35.28
2019-03-28T01:50:06.513Z,35.75
2019-03-28T01:52:36.135Z,36.30
2019-03-28T01:55:07.292Z,35.33
2019-03-28T01:57:36.812Z,36.13
2019-03-28T02:00:08.869Z,36.42
2019-03-28T02:02:38.391Z,37.13
2019-03-28T02:05:07.875Z,36.30
2019-03-28T02:07:37.338Z,35.98
2019-03-28T02:10:06.828Z,35.58
2019-03-28T02:12:36.386Z,34.30
2019-03-28T02:15:08.929Z,34.53
2019-03-28T02:17:38.937Z,34.45
2019-03-28T02:20:08.799Z,34.65
2019-03-28T02:22:39.483Z,34.27
2019-03-28T02:25:09.051Z,34.80
2019-03-28T02:27:38.681Z,34.18
2019-03-28T02:30:08.235Z,34.60
2019-03-28T02:32:37.730Z,35.52
2019-03-28T02:35:07.287Z,33.67
2019-03-28T02:37:36.851Z,34.25
2019-03-28T02:40:07.380Z,34.80
2019-03-28T02:42:36.936Z,32.23
2019-03-28T02:45:06.888Z,32.90
2019-03-28T02:47:36.755Z,32.05
2019-03-28T02:50:06.514Z,33.28
2019-03-28T02:52:37.200Z,33.02
2019-03-28T02:55:06.969Z,31.77
2019-03-28T02:57:41.557Z,31.55
2019-03-28T03:00:10.711Z,30.57
2019-03-28T03:02:41.123Z,30.17
2019-03-28T03:05:10.702Z,32.25
2019-03-28T03:07:41.701Z,29.02
2019-03-28T03:10:11.440Z,30.30
2019-03-28T03:12:41.011Z,30.20
2019-03-28T03:15:10.634Z,28.62
2019-03-28T03:17:40.150Z,28.38
2019-03-28T03:20:09.696Z,28.87
2019-03-28T03:22:39.665Z,29.42
2019-03-28T03:25:09.822Z,28.05
2019-03-28T03:27:56.397Z,28.32
2019-03-28T03:30:11.392Z,28.32
2019-03-28T03:32:40.955Z,26.27
2019-03-28T03:35:10.530Z,26.30
2019-03-28T03:37:40.074Z,26.30
2019-03-28T03:40:09.654Z,27.42
2019-03-28T03:42:39.572Z,26.00
2019-03-28T03:45:09.815Z,25.17
2019-03-28T03:47:39.407Z,25.95
2019-03-28T03:50:09.188Z,25.20
2019-03-28T03:52:38.748Z,24.67
2019-03-28T03:55:08.398Z,25.37
2019-03-28T03:57:38.214Z,24.80
2019-03-28T04:00:07.787Z,23.77
2019-03-28T04:02:37.361Z,23.22
2019-03-28T04:05:06.949Z,24.10
2019-03-28T04:07:36.509Z,23.05
2019-03-28T04:10:06.639Z,24.15
2019-03-28T04:12:36.189Z,22.93
2019-03-28T04:15:05.712Z,22.27
2019-03-28T04:17:35.294Z,23.50
2019-03-28T04:20:06.538Z,22.20
2019-03-28T04:22:36.969Z,22.13
2019-03-28T04:25:07.296Z,21.25
2019-03-28T04:27:36.878Z,21.85
2019-03-28T04:30:09.195Z,20.65
2019-03-28T04:32:38.830Z,19.82
2019-03-28T04:35:08.388Z,20.10
2019-03-28T04:37:37.948Z,19.85
2019-03-28T04:40:08.500Z,19.90
2019-03-28T04:42:38.461Z,19.40
2019-03-28T04:45:09.051Z,19.90
2019-03-28T04:47:38.596Z,19.12
2019-03-28T04:50:08.491Z,18.32
2019-03-28T04:52:38.056Z,18.15
2019-03-28T04:55:07.601Z,18.75
2019-03-28T04:57:37.108Z,17.07
2019-03-28T05:00:07.425Z,17.50
2019-03-28T05:02:37.138Z,17.10
2019-03-28T05:05:07.206Z,16.67
2019-03-28T05:07:36.764Z,16.35
2019-03-28T05:10:10.207Z,16.57
2019-03-28T05:12:39.759Z,15.90
2019-03-28T05:15:09.637Z,15.43
2019-03-28T05:17:39.195Z,15.25
2019-03-28T05:20:08.743Z,15.88
2019-03-28T05:22:38.513Z,15.30
2019-03-28T05:25:08.172Z,14.47
2019-03-28T05:27:37.741Z,13.90
2019-03-28T05:30:08.869Z,13.78
2019-03-28T05:32:38.420Z,14.13
2019-03-28T05:35:08.038Z,13.25
2019-03-28T05:37:37.579Z,13.85
2019-03-28T05:40:07.138Z,12.73
2019-03-28T05:42:36.714Z,12.68
2019-03-28T05:45:07.288Z,13.13
2019-03-28T05:47:36.986Z,12.23
2019-03-28T05:50:06.862Z,12.43
2019-03-28T05:52:37.427Z,12.80
2019-03-28T05:55:07.706Z,12.05
2019-03-28T05:57:37.257Z,12.10
2019-03-28T06:00:07.895Z,11.55
2019-03-28T06:02:37.454Z,11.43
2019-03-28T06:05:07.217Z,11.95
2019-03-28T06:07:36.785Z,12.05
2019-03-28T06:10:07.426Z,11.80
2019-03-28T06:12:37.234Z,10.58
2019-03-28T06:15:07.897Z,11.28
2019-03-28T06:17:37.474Z,11.70
2019-03-28T06:20:08.057Z,12.00
2019-03-28T06:22:37.604Z,11.45
2019-03-28T06:25:07.603Z,11.97
2019-03-28T06:27:37.287Z,11.48
2019-03-28T06:30:07.452Z,11.20
2019-03-28T06:32:42.772Z,10.65
2019-03-28T06:35:12.797Z,10.68
2019-03-28T06:37:51.625Z,10.82
2019-03-28T06:40:31.615Z,10.48
2019-03-28T06:43:10.599Z,10.53
2019-03-28T06:45:52.086Z,10.40
2019-03-28T06:48:26.609Z,10.23
2019-03-28T06:51:05.136Z,10.05
2019-03-28T06:53:45.145Z,10.68
2019-03-28T06:56:25.344Z,10.43
2019-03-28T06:59:02.143Z,10.72
2019-03-28T07:01:42.055Z,10.30
2019-03-28T07:04:15.450Z,9.53
2019-03-28T07:06:52.164Z,10.48
2019-03-28T07:09:29.613Z,9.25
2019-03-28T07:12:11.182Z,9.68
2019-03-28T07:14:53.182Z,10.38
2019-03-28T07:17:33.192Z,9.80
2019-03-28T07:20:11.197Z,10.75
2019-03-28T07:22:50.193Z,10.70
2019-03-28T07:28:06.207Z,10.28
2019-03-28T07:30:41.634Z,10.55
2019-03-28T07:33:23.204Z,10.08
2019-03-28T07:35:59.906Z,10.55
2019-03-28T07:38:37.900Z,10.23
2019-03-28T07:41:16.565Z,10.00
2019-03-28T07:43:57.211Z,10.43
2019-03-28T07:46:41.214Z,10.53
2019-03-28T07:49:18.221Z,10.68
2019-03-28T07:51:59.221Z,9.98
2019-03-28T07:54:40.232Z,10.70
2019-03-28T07:57:16.215Z,10.25
2019-03-28T08:00:03.488Z,10.32
2019-03-28T08:02:28.129Z,10.03
2019-03-28T08:05:07.667Z,10.35
2019-03-28T08:07:47.718Z,10.15
2019-03-28T08:10:25.107Z,10.58
2019-03-28T08:12:58.092Z,10.38
2019-03-28T08:15:30.876Z,10.53
2019-03-28T08:18:09.698Z,9.98
2019-03-28T08:20:51.266Z,9.95
2019-03-28T08:23:24.681Z,10.32
2019-03-28T08:26:07.276Z,10.15
2019-03-28T08:28:43.251Z,9.78
2019-03-28T08:31:21.767Z,9.30
2019-03-28T08:34:02.004Z,10.75
2019-03-28T08:36:40.542Z,10.32
2019-03-28T08:39:18.954Z,10.43
2019-03-28T08:41:57.318Z,10.23
2019-03-28T08:44:35.789Z,10.03
2019-03-28T08:47:12.873Z,10.30
2019-03-28T08:49:52.315Z,9.93
2019-03-28T08:52:31.316Z,10.30
2019-03-28T08:55:11.790Z,10.25
2019-03-28T08:57:52.762Z,10.53
2019-03-28T09:00:44.528Z,10.88
2019-03-28T09:03:13.788Z,10.85
2019-03-28T09:05:51.793Z,10.70
2019-03-28T09:08:32.326Z,10.85
2019-03-28T09:11:11.793Z,11.18
2019-03-28T09:13:52.331Z,11.45
2019-03-28T09:16:26.267Z,10.80
2019-03-28T09:19:01.307Z,10.60
2019-03-28T09:21:40.340Z,11.28
2019-03-28T09:24:20.348Z,10.85
2019-03-28T09:26:55.721Z,11.55
2019-03-28T09:29:34.351Z,10.80
2019-03-28T09:32:08.658Z,10.95
2019-03-28T09:34:48.369Z,11.38
2019-03-28T09:37:27.372Z,10.80
2019-03-28T09:39:59.292Z,11.48
2019-03-28T09:42:35.861Z,11.50
2019-03-28T09:45:55.035Z,11.38
2019-03-28T09:48:30.884Z,11.20
2019-03-28T09:51:11.856Z,11.70
2019-03-28T09:53:49.437Z,11.30
2019-03-28T09:56:27.422Z,12.15
2019-03-28T09:59:01.432Z,11.90
2019-03-28T10:01:37.934Z,11.28
2019-03-28T10:04:13.786Z,11.88
2019-03-28T10:06:49.483Z,11.25
2019-03-28T10:09:24.369Z,12.03
2019-03-28T10:12:04.504Z,11.57
2019-03-28T10:14:46.908Z,12.20
2019-03-28T10:17:25.961Z,11.65
2019-03-28T10:20:05.695Z,11.60
2019-03-28T10:22:42.989Z,11.38
2019-03-28T10:25:17.409Z,11.60
2019-03-28T10:27:53.979Z,10.88
2019-03-28T10:30:40.490Z,11.83
2019-03-28T10:33:19.002Z,10.90
2019-03-28T10:35:54.035Z,10.68
2019-03-28T10:38:27.328Z,11.38
2019-03-28T10:41:04.596Z,10.60
2019-03-28T10:43:44.608Z,11.00
2019-03-28T10:46:25.619Z,11.15
2019-03-28T10:49:01.595Z,10.72
2019-03-28T10:51:38.063Z,10.88
2019-03-28T10:54:20.425Z,10.50
2019-03-28T10:56:57.881Z,10.45
2019-03-28T10:59:35.629Z,11.50
2019-03-28T11:02:13.638Z,10.82
2019-03-28T11:04:47.374Z,10.07
2019-03-28T11:07:23.359Z,10.00
2019-03-28T11:10:04.683Z,10.20
2019-03-28T11:12:37.896Z,10.28
2019-03-28T11:15:16.690Z,9.85
2019-03-28T11:17:55.691Z,9.80
2019-03-28T11:20:39.818Z,9.60
2019-03-28T11:23:20.711Z,9.18
2019-03-28T11:26:01.711Z,9.85
2019-03-28T11:28:40.709Z,9.48
2019-03-28T11:31:18.720Z,9.18
2019-03-28T11:33:57.714Z,9.37
2019-03-28T11:36:36.710Z,8.90
2019-03-28T11:39:11.965Z,9.25
2019-03-28T11:41:43.620Z,8.63
2019-03-28T11:44:19.723Z,9.13
2019-03-28T11:46:59.722Z,8.10
2019-03-28T11:49:39.721Z,8.65
2019-03-28T11:52:22.189Z,8.15
2019-03-28T11:55:02.722Z,7.95
2019-03-28T11:57:41.723Z,8.50
2019-03-28T12:00:22.724Z,8.58
2019-03-28T12:03:01.724Z,8.90
2019-03-28T12:05:33.438Z,8.43
2019-03-28T12:08:11.729Z,8.23
2019-03-28T12:10:51.197Z,8.90
2019-03-28T12:13:44.160Z,8.30
2019-03-28T12:16:11.189Z,7.95
2019-03-28T12:18:53.197Z,8.53
2019-03-28T12:21:30.728Z,8.03
2019-03-28T12:24:08.726Z,7.78
2019-03-28T12:26:49.729Z,8.07
2019-03-28T12:29:28.726Z,7.55
2019-03-28T12:32:13.883Z,8.20
2019-03-28T12:34:48.727Z,8.45
2019-03-28T12:37:25.053Z,8.18
2019-03-28T12:40:00.213Z,7.47
2019-03-28T12:42:38.819Z,7.72
2019-03-28T12:45:19.828Z,7.62
2019-03-28T12:47:55.746Z,7.50
2019-03-28T12:50:35.275Z,7.50
2019-03-28T12:53:14.859Z,7.53
2019-03-28T12:55:53.333Z,7.45
2019-03-28T12:58:30.723Z,8.30
2019-03-28T13:01:10.858Z,7.50
2019-03-28T13:03:46.662Z,7.00
2019-03-28T13:06:25.876Z,7.67
2019-03-28T13:09:07.349Z,7.47
2019-03-28T13:11:49.869Z,7.10
2019-03-28T13:14:24.183Z,7.58
2019-03-28T13:17:03.307Z,7.33
2019-03-28T13:19:41.409Z,6.97
2019-03-28T13:22:19.312Z,7.25
2019-03-28T13:24:55.164Z,6.87
2019-03-28T13:27:34.792Z,7.20
2019-03-28T13:30:18.872Z,7.10
2019-03-28T13:32:59.871Z,6.90
2019-03-28T13:35:37.871Z,6.78
2019-03-28T13:38:13.320Z,6.90
2019-03-28T13:40:47.798Z,7.10
2019-03-28T13:43:23.342Z,6.50
2019-03-28T13:45:57.148Z,7.15
2019-03-28T13:48:35.770Z,6.83
2019-03-28T13:51:12.902Z,6.30
2019-03-28T13:53:53.758Z,6.70
2019-03-28T13:56:34.917Z,6.25
2019-03-28T13:59:13.910Z,6.90
2019-03-28T14:02:00.327Z,6.87
2019-03-28T14:04:37.913Z,6.83
2019-03-28T14:07:17.911Z,6.15
2019-03-28T14:09:55.963Z,6.90
2019-03-28T14:12:33.921Z,7.12
2019-03-28T14:15:12.922Z,6.85
2019-03-28T14:20:31.919Z,6.97
2019-03-28T14:23:11.918Z,7.78
2019-03-28T14:25:51.919Z,6.72
2019-03-28T14:28:34.705Z,7.12
2019-03-28T14:31:07.611Z,6.92
2019-03-28T14:33:41.393Z,11.95
2019-03-28T14:36:19.403Z,8.53
2019-03-28T14:38:57.957Z,7.75
2019-03-28T14:41:38.977Z,8.03
2019-03-28T14:44:18.977Z,7.45
2019-03-28T14:46:53.767Z,7.05
2019-03-28T14:49:30.015Z,7.35
2019-03-28T14:52:10.980Z,6.65
2019-03-28T14:54:48.978Z,6.58
2019-03-28T14:57:27.977Z,7.63
2019-03-28T15:00:05.985Z,8.75
2019-03-28T15:02:43.985Z,8.35
2019-03-28T15:05:24.998Z,11.93
2019-03-28T15:08:04.995Z,12.82
2019-03-28T15:10:43.390Z,10.05
2019-03-28T15:13:23.005Z,9.93
2019-03-28T15:16:01.004Z,9.85
2019-03-28T15:18:33.911Z,9.48
2019-03-28T15:21:12.003Z,14.13
2019-03-28T15:23:52.695Z,11.65
2019-03-28T15:26:33.087Z,10.68
2019-03-28T15:29:12.483Z,10.25
2019-03-28T15:31:50.067Z,10.30
2019-03-28T15:34:26.953Z,9.88
2019-03-28T15:37:08.016Z,10.32
2019-03-28T15:39:46.456Z,10.20
2019-03-28T15:42:28.210Z,9.05
2019-03-28T15:45:07.235Z,9.13
2019-03-28T15:47:51.833Z,8.20
2019-03-28T15:50:30.070Z,8.25
2019-03-28T15:53:07.521Z,9.03
2019-03-28T15:55:44.500Z,8.10
2019-03-28T15:58:24.555Z,9.55
2019-03-28T16:01:04.078Z,9.35
2019-03-28T16:03:52.846Z,9.80
2019-03-28T16:06:25.081Z,8.90
2019-03-28T16:08:56.980Z,8.85
2019-03-28T16:11:33.088Z,8.50
2019-03-28T16:14:11.089Z,8.33
2019-03-28T16:16:52.097Z,8.30
2019-03-28T16:19:30.097Z,7.67
2019-03-28T16:22:10.107Z,8.38
2019-03-28T16:24:50.107Z,8.35
2019-03-28T16:27:23.826Z,8.20
2019-03-28T16:30:00.586Z,7.97
2019-03-28T16:32:35.021Z,8.63
2019-03-28T16:35:14.126Z,9.48
2019-03-28T16:37:53.740Z,8.58
2019-03-28T16:40:31.599Z,8.90
2019-03-28T16:43:11.238Z,8.35
2019-03-28T16:45:48.132Z,8.90
2019-03-28T16:51:08.143Z,11.35
2019-03-28T16:53:49.122Z,12.45
2019-03-28T16:56:29.124Z,13.85
2019-03-28T16:59:10.126Z,13.60
2019-03-28T17:01:47.401Z,12.98
2019-03-28T17:04:23.766Z,12.98
2019-03-28T17:07:02.121Z,11.80
2019-03-28T17:09:39.143Z,12.43
2019-03-28T17:12:18.122Z,11.95
2019-03-28T17:14:52.124Z,14.15
2019-03-28T17:17:28.566Z,15.03
2019-03-28T17:20:11.383Z,15.23
2019-03-28T17:22:48.578Z,16.23
2019-03-28T17:25:27.593Z,21.87
2019-03-28T17:28:06.125Z,29.07
2019-03-28T17:30:51.588Z,23.73
2019-03-28T17:33:33.119Z,21.05
2019-03-28T17:36:14.123Z,20.23
2019-03-28T17:38:44.781Z,18.23
2019-03-28T17:41:25.121Z,18.20
2019-03-28T17:44:00.994Z,17.82
2019-03-28T17:46:38.613Z,15.23
2019-03-28T17:49:17.002Z,16.87
2019-03-28T17:51:55.120Z,14.65
2019-03-28T17:54:34.117Z,14.93
2019-03-28T17:57:13.618Z,15.43
2019-03-28T17:59:54.116Z,17.02
2019-03-28T18:02:30.118Z,17.23
2019-03-28T18:05:12.898Z,15.18
2019-03-28T18:07:53.124Z,14.25
2019-03-28T18:10:35.579Z,15.28
2019-03-28T18:13:22.593Z,18.37
2019-03-28T18:16:04.115Z,24.27
2019-03-28T18:18:39.417Z,24.60
2019-03-28T18:21:15.118Z,50.45
2019-03-28T18:23:56.116Z,35.05
2019-03-28T18:26:34.555Z,31.48
2019-03-28T18:29:19.127Z,28.12
2019-03-28T18:31:58.115Z,26.10
2019-03-28T18:34:36.556Z,25.75
2019-03-28T18:37:15.116Z,35.63
2019-03-28T18:39:53.115Z,27.13
2019-03-28T18:42:26.573Z,25.20
2019-03-28T18:45:03.553Z,22.82
2019-03-28T18:47:42.117Z,23.67
2019-03-28T18:50:20.114Z,21.48
2019-03-28T18:52:53.572Z,21.73
2019-03-28T18:55:31.585Z,20.62
2019-03-28T18:58:08.559Z,18.65
2019-03-28T19:00:48.334Z,19.20
2019-03-28T19:03:25.793Z,20.23
2019-03-28T19:06:14.810Z,20.17
2019-03-28T19:08:46.819Z,21.50
2019-03-28T19:11:20.725Z,21.05
2019-03-28T19:13:55.769Z,18.67
2019-03-28T19:16:34.113Z,18.50
2019-03-28T19:19:12.587Z,18.50
2019-03-28T19:21:58.580Z,18.42
2019-03-28T19:24:36.581Z,17.75
2019-03-28T19:27:18.728Z,16.65
2019-03-28T19:30:00.362Z,16.50
2019-03-28T19:32:41.552Z,16.60
2019-03-28T19:35:17.305Z,16.27
2019-03-28T19:37:58.584Z,16.67
2019-03-28T19:40:36.996Z,17.35
2019-03-28T19:43:20.329Z,16.45
2019-03-28T19:45:52.390Z,16.87
2019-03-28T19:48:27.424Z,16.20
2019-03-28T19:51:03.589Z,16.20
2019-03-28T19:53:45.112Z,17.07
2019-03-28T19:56:23.590Z,16.90
2019-03-28T19:59:03.111Z,16.97
2019-03-28T20:01:42.567Z,17.32
2019-03-28T20:04:24.124Z,18.50
2019-03-28T20:07:03.122Z,17.42
2019-03-28T20:09:35.122Z,18.02
2019-03-28T20:12:13.562Z,17.70
2019-03-28T20:14:55.557Z,19.98
2019-03-28T20:17:31.688Z,19.15
2019-03-28T20:22:45.371Z,20.75
2019-03-28T20:25:23.156Z,19.45
2019-03-28T20:28:06.162Z,19.32
2019-03-28T20:30:44.164Z,19.45
2019-03-28T20:33:19.172Z,19.80
2019-03-28T20:36:06.264Z,20.77
2019-03-28T20:38:33.174Z,19.98
2019-03-28T20:41:13.173Z,20.65
2019-03-28T20:43:46.635Z,21.20
2019-03-28T20:46:24.638Z,22.00
2019-03-28T20:49:04.192Z,25.88
2019-03-28T20:51:42.694Z,25.00
2019-03-28T20:54:19.203Z,25.12
2019-03-28T20:56:57.888Z,25.75
2019-03-28T20:59:32.224Z,27.87
2019-03-28T21:02:12.969Z,26.60
2019-03-28T21:04:45.750Z,26.15
2019-03-28T21:07:23.283Z,25.95
2019-03-28T21:09:58.178Z,27.25
2019-03-28T21:12:30.241Z,27.90
2019-03-28T21:15:02.203Z,25.92
2019-03-28T21:17:38.772Z,26.25
2019-03-28T21:20:20.304Z,26.10
2019-03-28T21:23:01.311Z,26.77
2019-03-28T21:25:40.306Z,26.52
2019-03-28T21:30:49.696Z,26.20
2019-03-28T21:33:28.742Z,26.15
2019-03-28T21:36:07.306Z,25.43
2019-03-28T21:38:48.745Z,25.97
2019-03-28T21:41:27.309Z,25.80
2019-03-28T21:44:05.776Z,27.27
2019-03-28T21:46:47.307Z,24.50
2019-03-28T21:49:29.310Z,23.77
2019-03-28T21:52:10.031Z,22.77
2019-03-28T21:54:42.603Z,22.30
2019-03-28T21:57:21.307Z,23.35
2019-03-28T21:59:57.327Z,22.40
2019-03-28T22:02:38.340Z,22.42
2019-03-28T22:05:16.348Z,22.48
2019-03-28T22:10:23.155Z,21.60
2019-03-28T22:12:59.368Z,21.75
2019-03-28T22:15:40.798Z,20.68
2019-03-28T22:18:22.370Z,19.65
2019-03-28T22:21:03.375Z,19.32
2019-03-28T22:23:42.370Z,19.65
2019-03-28T22:26:20.812Z,19.20
2019-03-28T22:29:01.380Z,20.85
2019-03-28T22:31:39.396Z,20.05
2019-03-28T22:34:15.841Z,19.57
2019-03-28T22:36:57.474Z,20.25
2019-03-28T22:39:32.870Z,19.40
2019-03-28T22:42:13.403Z,20.00
2019-03-28T22:44:52.402Z,20.20
2019-03-28T22:47:34.788Z,20.45
2019-03-28T22:50:05.705Z,20.08
2019-03-28T22:52:39.307Z,19.55
2019-03-28T22:55:15.880Z,18.50
2019-03-28T22:57:54.202Z,18.87
2019-03-28T23:00:35.414Z,18.85
2019-03-28T23:03:16.428Z,19.10
2019-03-28T23:05:51.424Z,18.92
2019-03-28T23:08:30.914Z,19.45
2019-03-28T23:11:06.869Z,20.02
2019-03-28T23:13:48.425Z,19.75
2019-03-28T23:16:26.892Z,20.12
2019-03-28T23:19:07.426Z,19.80
2019-03-28T23:21:50.428Z,19.95
2019-03-28T23:24:29.427Z,20.50
2019-03-28T23:27:07.427Z,20.43
2019-03-28T23:29:42.727Z,19.40
2019-03-28T23:32:21.427Z,18.65
2019-03-28T23:34:57.817Z,20.32
2019-03-28T23:37:34.426Z,19.15
2019-03-28T23:40:12.427Z,19.85
2019-03-28T23:42:46.913Z,20.23
2019-03-28T23:45:23.894Z,19.62
2019-03-28T23:48:04.427Z,20.12
2019-03-28T23:50:42.430Z,19.37
2019-03-28T23:56:02.438Z,19.15
2019-03-28T23:58:38.109Z,19.62
